createdAt,value
2019-04-04T00:01:48.236Z,24.02
2019-04-04T00:04:53.245Z,24.00
2019-04-04T00:07:58.122Z,23.98
2019-04-04T00:11:02.085Z,23.99
2019-04-04T00:14:05.602Z,24.00
2019-04-04T00:17:10.123Z,23.99
2019-04-04T00:20:13.678Z,23.99
2019-04-04T00:23:18.138Z,23.99
2019-04-04T00:26:21.646Z,23.97
2019-04-04T00:29:26.272Z,23.96
2019-04-04T00:32:29.880Z,23.96
2019-04-04T00:35:33.386Z,23.97
2019-04-04T00:38:37.984Z,23.95
2019-04-04T00:41:42.980Z,23.95
2019-04-04T00:44:47.560Z,23.96
2019-04-04T00:47:51.063Z,23.95
2019-04-04T00:50:55.611Z,23.92
2019-04-04T00:54:00.137Z,23.93
2019-04-04T00:57:03.623Z,23.93
2019-04-04T01:00:07.288Z,23.93
2019-04-04T01:03:10.827Z,23.90
2019-04-04T01:06:14.332Z,23.92
2019-04-04T01:09:17.830Z,23.91
2019-04-04T01:12:22.287Z,23.90
2019-04-04T01:15:25.844Z,23.89
2019-04-04T01:18:29.409Z,23.90
2019-04-04T01:21:32.866Z,23.88
2019-04-04T01:24:37.385Z,23.88
2019-04-04T01:27:40.919Z,23.88
2019-04-04T01:30:44.407Z,23.87
2019-04-04T01:33:50.902Z,23.87
2019-04-04T01:36:56.077Z,23.86
2019-04-04T01:40:02.243Z,23.86
2019-04-04T01:43:08.839Z,23.85
2019-04-04T01:46:11.001Z,23.86
2019-04-04T01:49:14.503Z,23.84
2019-04-04T01:52:18.019Z,23.84
2019-04-04T01:55:21.458Z,23.84
2019-04-04T01:58:25.220Z,23.83
2019-04-04T02:01:28.819Z,23.82
2019-04-04T02:04:32.315Z,23.82
2019-04-04T02:07:35.814Z,23.82
2019-04-04T02:10:39.341Z,23.81
2019-04-04T02:13:42.844Z,23.82
2019-04-04T02:16:50.995Z,23.80
2019-04-04T02:19:51.674Z,23.81
2019-04-04T02:22:55.155Z,23.80
2019-04-04T02:25:59.688Z,23.82
2019-04-04T02:29:03.185Z,23.78
2019-04-04T02:32:10.343Z,23.78
2019-04-04T02:35:13.880Z,23.78
2019-04-04T02:38:17.371Z,23.76
2019-04-04T02:41:21.904Z,23.77
2019-04-04T02:44:25.351Z,23.77
2019-04-04T02:47:28.906Z,23.77
2019-04-04T02:50:35.538Z,23.75
2019-04-04T02:53:37.750Z,23.77
2019-04-04T02:56:42.541Z,23.74
2019-04-04T02:59:46.169Z,23.75
2019-04-04T03:02:49.676Z,23.75
2019-04-04T03:05:53.161Z,23.75
2019-04-04T03:08:56.690Z,23.74
2019-04-04T03:12:00.184Z,23.73
2019-04-04T03:15:06.317Z,23.73
2019-04-04T03:18:10.295Z,23.73
2019-04-04T03:21:13.775Z,23.71
2019-04-04T03:24:18.293Z,23.73
2019-04-04T03:27:25.461Z,23.72
2019-04-04T03:30:28.155Z,23.71
2019-04-04T03:33:32.684Z,23.70
2019-04-04T03:36:36.382Z,23.71
2019-04-04T03:39:39.863Z,23.70
2019-04-04T03:42:44.305Z,23.70
2019-04-04T03:45:48.520Z,23.68
2019-04-04T03:48:52.016Z,23.68
2019-04-04T03:51:55.545Z,23.68
2019-04-04T03:55:00.072Z,23.68
2019-04-04T03:58:03.554Z,23.68
2019-04-04T04:01:11.959Z,23.67
2019-04-04T04:04:13.452Z,23.67
2019-04-04T04:07:16.922Z,23.67
2019-04-04T04:10:20.530Z,23.67
2019-04-04T04:13:24.143Z,23.66
2019-04-04T04:16:27.638Z,23.66
2019-04-04T04:19:31.555Z,23.66
2019-04-04T04:22:35.242Z,23.65
2019-04-04T04:25:43.249Z,23.64
2019-04-04T04:28:46.781Z,23.66
2019-04-04T04:31:50.241Z,23.60
2019-04-04T04:34:53.679Z,23.64
2019-04-04T04:37:57.253Z,23.64
2019-04-04T04:41:00.859Z,23.62
2019-04-04T04:44:05.611Z,23.63
2019-04-04T04:47:09.648Z,23.63
2019-04-04T04:50:13.168Z,23.63
2019-04-04T04:53:18.891Z,23.59
2019-04-04T04:56:21.939Z,23.62
2019-04-04T04:59:25.464Z,23.61
2019-04-04T05:02:28.945Z,23.61
2019-04-04T05:05:32.450Z,23.60
2019-04-04T05:08:35.961Z,23.59
2019-04-04T05:11:39.444Z,23.59
2019-04-04T05:14:42.962Z,23.57
2019-04-04T05:17:46.460Z,23.59
2019-04-04T05:20:51.017Z,23.57
2019-04-04T05:23:55.502Z,23.59
2019-04-04T05:27:03.997Z,23.57
2019-04-04T05:30:08.745Z,23.58
2019-04-04T05:33:12.347Z,23.58
2019-04-04T05:39:18.928Z,23.57
2019-04-04T05:42:22.470Z,23.57
2019-04-04T05:45:25.897Z,23.57
2019-04-04T05:48:29.731Z,23.55
2019-04-04T05:51:36.037Z,23.57
2019-04-04T05:54:39.191Z,23.55
2019-04-04T05:57:43.322Z,23.55
2019-04-04T06:00:47.943Z,23.56
2019-04-04T06:03:52.490Z,23.58
2019-04-04T06:06:55.989Z,23.55
2019-04-04T06:09:59.501Z,23.54
2019-04-04T06:13:02.973Z,23.56
2019-04-04T06:16:06.485Z,23.55
2019-04-04T06:19:09.989Z,23.54
2019-04-04T06:22:13.487Z,23.54
2019-04-04T06:25:17.031Z,23.54
2019-04-04T06:28:20.495Z,23.54
2019-04-04T06:31:26.080Z,23.55
2019-04-04T06:34:29.332Z,23.54
2019-04-04T06:37:34.273Z,23.54
2019-04-04T06:40:38.258Z,23.54
2019-04-04T06:43:42.088Z,23.53
2019-04-04T06:46:45.501Z,23.55
2019-04-04T06:49:49.206Z,23.54
2019-04-04T06:52:52.810Z,23.54
2019-04-04T06:55:58.166Z,23.54
2019-04-04T06:59:02.690Z,23.54
2019-04-04T07:02:06.264Z,23.54
2019-04-04T07:05:10.739Z,23.54
2019-04-04T07:08:15.925Z,23.54
2019-04-04T07:11:21.598Z,23.53
2019-04-04T07:14:24.899Z,23.54
2019-04-04T07:17:29.407Z,23.53
2019-04-04T07:20:32.912Z,23.53
2019-04-04T07:23:36.408Z,23.53
2019-04-04T07:26:39.910Z,23.54
2019-04-04T07:29:43.414Z,23.53
2019-04-04T07:32:46.898Z,23.53
2019-04-04T07:35:50.427Z,23.54
2019-04-04T07:38:54.038Z,23.53
2019-04-04T07:41:57.613Z,23.54
2019-04-04T07:45:01.141Z,23.55
2019-04-04T07:48:05.653Z,23.60
2019-04-04T07:51:09.180Z,23.61
2019-04-04T07:54:12.642Z,23.65
2019-04-04T07:57:17.317Z,23.68
2019-04-04T08:00:21.367Z,23.68
2019-04-04T08:03:25.095Z,23.67
2019-04-04T08:06:28.696Z,23.68
2019-04-04T08:09:32.218Z,23.70
2019-04-04T08:12:35.700Z,23.68
2019-04-04T08:15:45.164Z,23.74
2019-04-04T08:18:48.748Z,23.76
2019-04-04T08:21:52.359Z,23.76
2019-04-04T08:24:55.879Z,23.78
2019-04-04T08:28:00.356Z,23.77
2019-04-04T08:31:03.896Z,23.82
2019-04-04T08:34:07.393Z,23.83
2019-04-04T08:37:10.883Z,23.82
2019-04-04T08:40:14.494Z,23.82
2019-04-04T08:43:18.086Z,23.79
2019-04-04T08:46:21.610Z,23.81
2019-04-04T08:49:25.047Z,23.81
2019-04-04T08:52:28.648Z,23.80
2019-04-04T08:55:32.094Z,23.81
2019-04-04T08:58:36.603Z,23.80
2019-04-04T09:01:40.116Z,23.80
2019-04-04T09:04:44.839Z,23.83
2019-04-04T09:07:48.329Z,23.85
2019-04-04T09:10:51.895Z,23.84
2019-04-04T09:13:55.446Z,23.84
2019-04-04T09:16:59.213Z,23.85
2019-04-04T09:20:02.963Z,23.84
2019-04-04T09:23:06.468Z,23.85
2019-04-04T09:26:09.962Z,23.88
2019-04-04T09:29:14.483Z,23.90
2019-04-04T09:32:18.037Z,23.94
2019-04-04T09:35:21.501Z,23.95
2019-04-04T09:38:25.009Z,23.97
2019-04-04T09:41:28.516Z,24.01
2019-04-04T09:44:31.996Z,24.02
2019-04-04T09:47:35.490Z,24.05
2019-04-04T09:50:39.065Z,24.03
2019-04-04T09:53:53.017Z,24.03
2019-04-04T09:56:47.857Z,24.08
2019-04-04T09:59:51.372Z,24.08
2019-04-04T10:02:54.850Z,24.10
2019-04-04T10:05:58.387Z,24.14
2019-04-04T10:09:15.007Z,24.15
2019-04-04T10:12:09.854Z,24.16
2019-04-04T10:15:13.389Z,24.16
2019-04-04T10:18:20.162Z,24.18
2019-04-04T10:21:24.666Z,24.19
2019-04-04T10:24:28.163Z,24.20
2019-04-04T10:27:31.781Z,24.22
2019-04-04T10:30:35.369Z,24.24
2019-04-04T10:33:41.999Z,24.27
2019-04-04T10:36:44.229Z,24.29
2019-04-04T10:39:47.883Z,24.30
2019-04-04T10:42:56.756Z,24.32
2019-04-04T10:46:00.321Z,24.32
2019-04-04T10:49:04.188Z,24.30
2019-04-04T10:52:07.945Z,24.31
2019-04-04T10:55:15.984Z,24.32
2019-04-04T10:58:19.344Z,24.31
2019-04-04T11:01:24.404Z,24.31
2019-04-04T11:04:30.158Z,24.34
2019-04-04T11:07:33.928Z,24.35
2019-04-04T11:10:38.588Z,24.34
2019-04-04T11:13:42.211Z,24.38
2019-04-04T11:16:47.777Z,24.42
2019-04-04T11:19:51.227Z,24.45
2019-04-04T11:22:54.866Z,24.47
2019-04-04T11:25:59.288Z,24.50
2019-04-04T11:29:03.028Z,24.50
2019-04-04T11:32:11.521Z,24.57
2019-04-04T11:35:15.202Z,24.56
2019-04-04T11:38:18.874Z,24.57
2019-04-04T11:41:22.321Z,24.58
2019-04-04T11:44:25.917Z,24.61
2019-04-04T11:47:29.550Z,24.63
2019-04-04T11:50:33.028Z,24.64
2019-04-04T11:53:36.551Z,24.67
2019-04-04T11:56:40.025Z,24.69
2019-04-04T11:59:43.525Z,24.70
2019-04-04T12:02:48.119Z,24.73
2019-04-04T12:05:51.656Z,24.74
2019-04-04T12:08:56.276Z,24.76
2019-04-04T12:11:59.785Z,24.79
2019-04-04T12:15:03.502Z,24.80
2019-04-04T12:18:06.982Z,24.80
2019-04-04T12:21:11.511Z,24.85
2019-04-04T12:24:16.030Z,24.88
2019-04-04T12:27:19.546Z,24.89
2019-04-04T12:30:23.060Z,24.92
2019-04-04T12:33:28.389Z,24.94
2019-04-04T12:36:31.870Z,24.94
2019-04-04T12:39:35.412Z,24.97
2019-04-04T12:42:38.889Z,24.96
2019-04-04T12:45:43.433Z,24.99
2019-04-04T12:48:46.949Z,25.00
2019-04-04T12:51:50.549Z,25.02
2019-04-04T12:54:54.230Z,25.04
2019-04-04T12:57:57.816Z,25.03
2019-04-04T13:01:01.311Z,25.08
2019-04-04T13:04:04.857Z,25.10
2019-04-04T13:07:08.379Z,25.13
2019-04-04T13:10:12.303Z,25.12
2019-04-04T13:13:16.970Z,25.16
2019-04-04T13:16:20.473Z,25.17
2019-04-04T13:19:24.045Z,25.15
2019-04-04T13:22:27.685Z,25.16
2019-04-04T13:25:31.284Z,25.17
2019-04-04T13:28:34.888Z,25.16
2019-04-04T13:31:38.474Z,25.19
2019-04-04T13:34:43.050Z,25.19
2019-04-04T13:37:46.742Z,25.24
2019-04-04T13:40:51.655Z,25.25
2019-04-04T13:43:55.059Z,25.25
2019-04-04T13:46:58.740Z,25.27
2019-04-04T13:50:02.277Z,25.28
2019-04-04T13:53:05.834Z,25.27
2019-04-04T13:56:09.532Z,25.28
2019-04-04T13:59:13.287Z,25.32
2019-04-04T14:02:16.881Z,25.30
2019-04-04T14:05:21.515Z,25.31
2019-04-04T14:08:25.253Z,25.35
2019-04-04T14:11:28.799Z,25.38
2019-04-04T14:14:32.440Z,25.41
2019-04-04T14:17:36.162Z,25.42
2019-04-04T14:20:39.830Z,25.39
2019-04-04T14:23:45.269Z,25.39
2019-04-04T14:26:48.880Z,25.44
2019-04-04T14:29:55.212Z,25.45
2019-04-04T14:32:57.951Z,25.45
2019-04-04T14:36:01.546Z,25.46
2019-04-04T14:39:06.919Z,25.46
2019-04-04T14:42:10.424Z,25.51
2019-04-04T14:45:13.880Z,25.52
2019-04-04T14:48:17.402Z,25.55
2019-04-04T14:51:20.821Z,25.56
2019-04-04T14:54:24.376Z,25.58
2019-04-04T14:57:27.909Z,25.63
2019-04-04T15:00:31.380Z,25.62
2019-04-04T15:03:35.932Z,25.63
2019-04-04T15:06:39.434Z,25.65
2019-04-04T15:09:42.936Z,25.62
2019-04-04T15:12:47.018Z,25.65
2019-04-04T15:16:14.734Z,25.66
2019-04-04T15:19:18.200Z,25.63
2019-04-04T15:22:21.697Z,25.61
2019-04-04T15:25:25.197Z,25.62
2019-04-04T15:28:28.703Z,25.64
2019-04-04T15:31:32.202Z,25.64
2019-04-04T15:34:35.728Z,25.66
2019-04-04T15:37:39.202Z,25.70
2019-04-04T15:40:42.711Z,25.73
2019-04-04T15:43:46.225Z,25.74
2019-04-04T15:46:49.730Z,25.74
2019-04-04T15:49:54.270Z,25.75
2019-04-04T15:52:57.785Z,25.76
2019-04-04T15:56:01.344Z,25.76
2019-04-04T15:59:07.560Z,25.77
2019-04-04T16:02:11.316Z,25.77
2019-04-04T16:05:14.813Z,25.74
2019-04-04T16:08:19.403Z,25.72
2019-04-04T16:11:25.633Z,25.69
2019-04-04T16:14:29.203Z,25.72
2019-04-04T16:17:33.735Z,25.71
2019-04-04T16:20:37.260Z,25.70
2019-04-04T16:23:41.029Z,25.70
2019-04-04T16:26:44.758Z,25.70
2019-04-04T16:29:48.352Z,25.69
2019-04-04T16:32:52.881Z,25.65
2019-04-04T16:35:56.441Z,25.65
2019-04-04T16:38:59.896Z,25.63
2019-04-04T16:42:03.439Z,25.61
2019-04-04T16:45:07.667Z,25.60
2019-04-04T16:48:13.774Z,25.61
2019-04-04T16:51:16.648Z,25.58
2019-04-04T16:54:20.250Z,25.57
2019-04-04T16:57:23.766Z,25.57
2019-04-04T17:00:27.379Z,25.52
2019-04-04T17:03:30.958Z,25.49
2019-04-04T17:06:35.511Z,25.47
2019-04-04T17:09:39.006Z,25.46
2019-04-04T17:12:42.594Z,25.45
2019-04-04T17:15:46.233Z,25.44
2019-04-04T17:18:49.684Z,25.43
2019-04-04T17:21:53.179Z,25.42
2019-04-04T17:24:56.701Z,25.40
2019-04-04T17:28:01.271Z,25.39
2019-04-04T17:31:07.117Z,25.37
2019-04-04T17:34:10.078Z,25.37
2019-04-04T17:37:14.145Z,25.35
2019-04-04T17:40:18.027Z,25.35
2019-04-04T17:43:22.058Z,25.33
2019-04-04T17:46:25.513Z,25.31
2019-04-04T17:49:29.495Z,25.31
2019-04-04T17:52:33.125Z,25.30
2019-04-04T17:55:36.879Z,25.28
2019-04-04T17:58:40.323Z,25.28
2019-04-04T18:01:43.866Z,25.25
2019-04-04T18:04:48.813Z,25.25
2019-04-04T18:07:52.467Z,25.24
2019-04-04T18:10:55.971Z,25.24
2019-04-04T18:13:59.483Z,25.22
2019-04-04T18:17:03.073Z,25.20
2019-04-04T18:20:07.237Z,25.20
2019-04-04T18:23:10.906Z,25.20
2019-04-04T18:26:14.520Z,25.18
2019-04-04T18:29:18.021Z,25.18
2019-04-04T18:32:22.522Z,25.18
2019-04-04T18:35:26.661Z,25.14
2019-04-04T18:38:30.349Z,25.13
2019-04-04T18:41:33.852Z,25.12
2019-04-04T18:44:37.387Z,25.12
2019-04-04T18:47:40.909Z,25.12
2019-04-04T18:50:44.420Z,25.11
2019-04-04T18:53:47.881Z,25.10
2019-04-04T18:56:51.355Z,25.09
2019-04-04T18:59:54.858Z,25.09
2019-04-04T19:02:58.377Z,25.11
2019-04-04T19:06:01.855Z,25.15
2019-04-04T19:09:14.693Z,25.13
2019-04-04T19:12:14.391Z,25.16
2019-04-04T19:15:18.913Z,25.18
2019-04-04T19:18:22.518Z,25.15
2019-04-04T19:21:26.125Z,25.16
2019-04-04T19:24:29.659Z,25.17
2019-04-04T19:27:33.316Z,25.19
2019-04-04T19:30:37.865Z,25.18
2019-04-04T19:33:41.346Z,25.17
2019-04-04T19:36:44.866Z,25.16
2019-04-04T19:39:48.352Z,25.16
2019-04-04T19:42:52.894Z,25.20
2019-04-04T19:45:56.397Z,25.23
2019-04-04T19:48:59.888Z,25.22
2019-04-04T19:52:03.503Z,25.21
2019-04-04T19:55:07.674Z,25.22
2019-04-04T19:58:11.207Z,25.22
2019-04-04T20:01:14.707Z,25.23
2019-04-04T20:04:18.222Z,25.23
2019-04-04T20:07:21.785Z,25.24
2019-04-04T20:10:25.412Z,25.23
2019-04-04T20:13:31.096Z,25.18
2019-04-04T20:16:34.299Z,25.15
2019-04-04T20:19:37.782Z,25.15
2019-04-04T20:22:41.376Z,25.12
2019-04-04T20:25:44.969Z,25.08
2019-04-04T20:28:50.667Z,25.09
2019-04-04T20:31:54.246Z,25.08
2019-04-04T20:34:57.736Z,25.08
2019-04-04T20:38:02.275Z,25.05
2019-04-04T20:41:05.766Z,25.07
2019-04-04T20:44:10.297Z,25.03
2019-04-04T20:47:13.795Z,25.03
2019-04-04T20:50:17.287Z,25.00
2019-04-04T20:53:22.224Z,24.98
2019-04-04T20:56:26.041Z,24.99
2019-04-04T20:59:29.624Z,24.97
2019-04-04T21:02:33.195Z,24.95
2019-04-04T21:05:36.846Z,24.94
2019-04-04T21:08:40.330Z,24.91
2019-04-04T21:11:43.851Z,24.93
2019-04-04T21:14:48.361Z,24.90
2019-04-04T21:17:51.856Z,24.90
2019-04-04T21:20:55.374Z,24.89
2019-04-04T21:23:59.880Z,24.86
2019-04-04T21:27:03.387Z,24.86
2019-04-04T21:30:06.934Z,24.84
2019-04-04T21:33:10.406Z,24.85
2019-04-04T21:36:13.973Z,24.85
2019-04-04T21:39:17.595Z,24.83
2019-04-04T21:42:22.125Z,24.82
2019-04-04T21:45:25.617Z,24.82
2019-04-04T21:48:29.241Z,24.84
2019-04-04T21:51:32.858Z,24.80
2019-04-04T21:54:36.291Z,24.78
2019-04-04T21:57:39.837Z,24.77
2019-04-04T22:00:44.363Z,24.76
2019-04-04T22:03:48.882Z,24.75
2019-04-04T22:06:52.388Z,24.77
2019-04-04T22:09:55.880Z,24.75
2019-04-04T22:12:59.389Z,24.73
2019-04-04T22:16:03.911Z,24.73
2019-04-04T22:19:09.458Z,24.72
2019-04-04T22:22:12.952Z,24.71
2019-04-04T22:25:16.450Z,24.73
2019-04-04T22:28:19.880Z,24.73
2019-04-04T22:31:23.462Z,24.72
2019-04-04T22:34:26.964Z,24.68
2019-04-04T22:37:30.459Z,24.69
2019-04-04T22:40:34.989Z,24.67
2019-04-04T22:43:38.491Z,24.67
2019-04-04T22:46:42.006Z,24.68
2019-04-04T22:49:45.486Z,24.67
2019-04-04T22:52:49.004Z,24.64
2019-04-04T22:55:52.503Z,24.66
2019-04-04T22:58:57.037Z,24.64
2019-04-04T23:02:00.536Z,24.64
2019-04-04T23:05:04.269Z,24.64
2019-04-04T23:08:07.754Z,24.61
2019-04-04T23:11:11.228Z,24.62
2019-04-04T23:14:15.752Z,24.60
2019-04-04T23:17:19.258Z,24.59
2019-04-04T23:20:22.750Z,24.59
2019-04-04T23:23:26.270Z,24.61
2019-04-04T23:26:29.759Z,24.62
2019-04-04T23:29:33.264Z,24.57
2019-04-04T23:32:36.776Z,24.59
2019-04-04T23:35:41.266Z,24.58
2019-04-04T23:38:44.789Z,24.55
2019-04-04T23:41:48.312Z,24.56
2019-04-04T23:45:00.690Z,24.56
2019-04-04T23:47:57.132Z,24.56
2019-04-04T23:51:00.737Z,24.55
2019-04-04T23:54:04.240Z,24.54
2019-04-04T23:57:07.833Z,24.52
